Cromwell, Alabama
Current Conditions -  °F | °C
As of 3:15 PM on Saturday 20 Dec 2014 (Local Time) from KDYA Reporting Station
Overcast Overcast  
Wind Chill: 51°   Ceiling: 3100
Heat Index: 51°   Visibility: 10mi
Dew Point: 40°   Wind: 5mph
Humidity: 66%   Direction: 30°NNE
Pressure: 30.17"   Gusts: NA
Location:  32.23°N, 88.27°W
Report Text: KDYA 202115Z AUTO 03004KT 10SM OVC031 11/05 A3017 RMK AO2 T01060045
Loading
Personal Weather Stations






























Interactive Weather Map New forecast layout! Learn more

10-Day Weather Forecast

Advertisements
Track Severe Weather on mobile